Time;durP1;ratioP1;P1;durP2;ratioP2;P2;SDS_P1;SDS_P2;PMS_P1;PMS_P2;Temp;Humidity;BMP_temperature;BMP_pressure;BME280_temperature;BME280_humidity;BME280_pressure;Samples;Min_cycle;Max_cycle;Signal;HPM_P1;HPM_P2
2021/12/05 00:22:23;;;;;;;6.47;1.90;;;;;;;;;;4945539;29;20502;-73
2021/12/05 00:24:52;;;;;;;8.35;2.40;;;;;;;;;;4944368;29;20802;-73
2021/12/05 00:27:20;;;;;;;4.30;1.17;;;;;;;;;;4946134;28;20182;-73
2021/12/05 01:04:27;;;;;;;10.65;2.25;;;;;;;;;;4992298;28;20515;-74
2021/12/05 01:17:26;;;;;;;13.07;2.22;;;;;;;;;;4996002;28;20192;-73
2021/12/05 01:19:53;;;;;;;6.03;1.63;;;;;;;;;;4996173;28;20212;-73
2021/12/05 01:22:21;;;;;;;11.70;2.85;;;;;;;;;;4995337;28;20212;-74
2021/12/05 01:25:19;;;;;;;6.22;1.50;;;;;;;;;;4996373;28;20587;-76
2021/12/05 01:30:36;;;;;;;9.77;1.83;;;;;;;;;;4995678;28;20170;-76
2021/12/05 01:35:51;;;;;;;5.03;1.15;;;;;;;;;;4995699;28;20276;-76
2021/12/05 01:57:26;;;;;;;6.65;1.27;;;;;;;;;;4996102;28;20543;-73
2021/12/05 02:07:58;;;;;;;6.45;1.42;;;;;;;;;;4995418;28;20297;-73
2021/12/05 02:29:46;;;;;;;11.00;2.15;;;;;;;;;;4994609;28;20611;-75
2021/12/05 02:43:04;;;;;;;14.43;2.37;;;;;;;;;;4988282;28;20748;-75
2021/12/05 02:45:32;;;;;;;5.65;1.00;;;;;;;;;;4989929;28;20401;-75
2021/12/05 02:47:58;;;;;;;4.85;1.20;;;;;;;;;;4993839;28;20176;-75
2021/12/05 02:50:25;;;;;;;9.18;1.80;;;;;;;;;;4994149;28;20217;-75
2021/12/05 02:52:56;;;;;;;4.53;1.40;;;;;;;;;;4993449;28;20228;-75
2021/12/05 02:55:37;;;;;;;7.03;1.70;;;;;;;;;;5001273;28;20275;-73
2021/12/05 02:58:13;;;;;;;10.80;2.50;;;;;;;;;;4991096;28;20508;-73
2021/12/05 03:00:45;;;;;;;9.25;2.10;;;;;;;;;;4993914;28;20177;-73
2021/12/05 03:03:19;;;;;;;4.35;1.05;;;;;;;;;;4993565;28;20665;-73
2021/12/05 03:05:57;;;;;;;15.45;2.95;;;;;;;;;;4994070;28;20260;-73
2021/12/05 03:08:23;;;;;;;12.65;3.72;;;;;;;;;;4993949;28;20169;-73
2021/12/05 03:10:50;;;;;;;6.90;1.70;;;;;;;;;;4994212;28;20193;-73
2021/12/05 03:13:16;;;;;;;16.00;1.75;;;;;;;;;;4993755;28;20535;-73
2021/12/05 03:15:42;;;;;;;33.45;2.28;;;;;;;;;;4993860;28;20177;-73
2021/12/05 03:18:08;;;;;;;12.63;2.50;;;;;;;;;;4993706;28;20181;-73
2021/12/05 03:20:34;;;;;;;10.95;2.25;;;;;;;;;;4993581;28;20185;-73
2021/12/05 03:23:01;;;;;;;9.40;2.28;;;;;;;;;;4993643;28;20198;-73
2021/12/05 03:25:27;;;;;;;12.13;1.83;;;;;;;;;;4993808;28;20192;-73
2021/12/05 03:27:53;;;;;;;5.03;1.40;;;;;;;;;;4993967;28;20204;-73
2021/12/05 03:30:21;;;;;;;14.27;2.78;;;;;;;;;;4993364;28;20655;-73
2021/12/05 03:32:50;;;;;;;7.97;1.65;;;;;;;;;;4993471;28;20644;-73
2021/12/05 03:35:17;;;;;;;10.48;2.28;;;;;;;;;;4993201;28;20531;-73
2021/12/05 03:37:43;;;;;;;6.32;1.65;;;;;;;;;;4993741;28;20203;-73
2021/12/05 03:40:09;;;;;;;6.37;1.73;;;;;;;;;;4993402;28;20532;-75
2021/12/05 03:42:36;;;;;;;4.53;1.25;;;;;;;;;;4993520;28;20814;-73
2021/12/05 03:45:05;;;;;;;8.40;1.85;;;;;;;;;;4993370;28;20180;-74
2021/12/05 03:47:31;;;;;;;15.57;2.55;;;;;;;;;;4993090;28;20181;-73
2021/12/05 03:49:57;;;;;;;12.40;2.42;;;;;;;;;;4992990;28;20661;-73
2021/12/05 03:52:23;;;;;;;20.00;3.95;;;;;;;;;;4992750;28;20192;-73
2021/12/05 03:54:49;;;;;;;6.50;1.83;;;;;;;;;;4995678;28;20189;-73
2021/12/05 03:57:15;;;;;;;2.45;1.00;;;;;;;;;;4999695;28;20614;-76
2021/12/05 03:59:41;;;;;;;13.38;2.75;;;;;;;;;;4993142;28;20196;-76
2021/12/05 04:02:08;;;;;;;10.07;1.92;;;;;;;;;;4992868;28;20220;-76
2021/12/05 04:04:34;;;;;;;5.35;1.73;;;;;;;;;;4992818;28;20189;-76
2021/12/05 04:07:01;;;;;;;7.47;2.03;;;;;;;;;;4993319;28;20177;-76
2021/12/05 04:09:27;;;;;;;6.70;2.35;;;;;;;;;;4993112;28;20213;-76
2021/12/05 04:12:00;;;;;;;4.18;1.33;;;;;;;;;;4993395;28;20184;-73
2021/12/05 04:14:28;;;;;;;6.25;1.75;;;;;;;;;;4993303;28;20177;-73
2021/12/05 04:16:54;;;;;;;10.18;1.65;;;;;;;;;;4992910;28;20192;-73
2021/12/05 04:19:21;;;;;;;5.28;1.50;;;;;;;;;;4993348;28;20184;-73
2021/12/05 04:21:47;;;;;;;14.90;3.05;;;;;;;;;;4992650;28;20257;-73
2021/12/05 04:24:14;;;;;;;7.38;1.90;;;;;;;;;;4992579;28;20182;-73
2021/12/05 04:26:41;;;;;;;6.32;1.95;;;;;;;;;;4993418;28;20532;-76
2021/12/05 04:29:07;;;;;;;13.65;2.33;;;;;;;;;;5008056;28;20679;-76
2021/12/05 04:31:34;;;;;;;16.10;3.40;;;;;;;;;;4992707;28;20173;-76
2021/12/05 04:34:00;;;;;;;6.30;1.70;;;;;;;;;;4992844;28;20260;-76
2021/12/05 04:36:26;;;;;;;20.67;3.40;;;;;;;;;;4992454;28;20269;-76
2021/12/05 04:38:52;;;;;;;16.40;3.55;;;;;;;;;;4992900;28;20425;-76
2021/12/05 04:41:18;;;;;;;5.97;1.73;;;;;;;;;;4994143;28;20641;-76
2021/12/05 04:43:46;;;;;;;7.28;1.55;;;;;;;;;;4996411;28;20664;-76
2021/12/05 04:46:14;;;;;;;5.85;1.55;;;;;;;;;;4996400;28;20170;-76
2021/12/05 04:48:41;;;;;;;6.47;1.58;;;;;;;;;;4996588;28;20170;-76
2021/12/05 04:51:08;;;;;;;8.20;2.15;;;;;;;;;;4996684;28;20259;-75
2021/12/05 04:53:34;;;;;;;6.72;1.65;;;;;;;;;;4995771;28;20217;-75
2021/12/05 04:56:00;;;;;;;20.05;2.30;;;;;;;;;;4997039;28;20196;-75
2021/12/05 04:58:27;;;;;;;8.50;2.00;;;;;;;;;;4996378;28;20546;-76
2021/12/05 05:00:54;;;;;;;7.65;1.75;;;;;;;;;;4996033;28;20170;-76
2021/12/05 05:03:20;;;;;;;10.05;1.38;;;;;;;;;;4996022;28;20198;-76
2021/12/05 05:05:52;;;;;;;5.17;1.30;;;;;;;;;;4996172;28;20200;-76
2021/12/05 05:08:19;;;;;;;15.00;1.50;;;;;;;;;;4996417;28;20447;-76
2021/12/05 05:10:46;;;;;;;6.70;1.55;;;;;;;;;;4996153;28;20568;-76
2021/12/05 05:13:12;;;;;;;13.68;2.25;;;;;;;;;;4996332;28;20190;-73
2021/12/05 05:15:38;;;;;;;4.35;1.63;;;;;;;;;;4996275;28;20186;-73
2021/12/05 05:18:05;;;;;;;4.53;1.38;;;;;;;;;;4996333;28;20182;-73
2021/12/05 05:20:40;;;;;;;7.47;1.95;;;;;;;;;;4995897;28;20259;-73
2021/12/05 05:47:09;;;;;;;8.27;1.85;;;;;;;;;;4992961;28;20178;-76
2021/12/05 05:52:01;;;;;;;9.43;3.33;;;;;;;;;;4993221;28;20256;-78
2021/12/05 05:54:28;;;;;;;15.20;2.72;;;;;;;;;;4991223;28;20562;-76
2021/12/05 05:57:00;;;;;;;9.85;2.50;;;;;;;;;;5003577;28;20186;-72
2021/12/05 05:59:33;;;;;;;6.25;1.40;;;;;;;;;;5011110;28;20640;-73
2021/12/05 06:03:20;;;;;;;3.92;1.35;;;;;;;;;;5012688;28;20328;-73
2021/12/05 06:04:45;;;;;;;7.25;1.60;;;;;;;;;;5005241;28;20189;-73
2021/12/05 06:07:12;;;;;;;12.67;2.10;;;;;;;;;;5007173;28;20588;-73
2021/12/05 06:09:38;;;;;;;23.75;2.47;;;;;;;;;;5012556;28;20888;-73
2021/12/05 06:12:04;;;;;;;7.90;1.98;;;;;;;;;;5003438;28;20204;-73
2021/12/05 06:14:30;;;;;;;7.03;2.05;;;;;;;;;;4992397;28;20244;-73
2021/12/05 06:16:56;;;;;;;9.17;2.10;;;;;;;;;;4992848;28;20594;-73
2021/12/05 06:19:22;;;;;;;5.27;1.30;;;;;;;;;;4994387;28;20424;-73
2021/12/05 06:21:49;;;;;;;12.97;2.37;;;;;;;;;;4994755;28;20436;-73
2021/12/05 06:24:15;;;;;;;14.63;2.47;;;;;;;;;;4994635;28;20447;-75
2021/12/05 06:26:42;;;;;;;12.57;2.20;;;;;;;;;;4994810;28;20976;-75
2021/12/05 06:29:15;;;;;;;6.10;1.70;;;;;;;;;;4994598;28;20840;-77
2021/12/05 06:32:18;;;;;;;16.33;1.95;;;;;;;;;;4994766;28;20420;-76
2021/12/05 06:37:43;;;;;;;4.88;1.30;;;;;;;;;;4993602;28;20266;-76
2021/12/05 06:43:01;;;;;;;4.78;1.45;;;;;;;;;;4994968;28;20202;-75
2021/12/05 06:48:29;;;;;;;39.65;2.90;;;;;;;;;;4996059;28;20173;-76
2021/12/05 06:50:55;;;;;;;16.90;2.90;;;;;;;;;;4993016;28;20201;-76
2021/12/05 06:53:21;;;;;;;21.08;4.15;;;;;;;;;;4990882;28;20525;-76
2021/12/05 06:55:47;;;;;;;18.67;3.13;;;;;;;;;;4995687;28;20213;-76
2021/12/05 06:58:13;;;;;;;10.67;2.30;;;;;;;;;;4992491;28;20959;-76
2021/12/05 07:00:39;;;;;;;12.80;2.75;;;;;;;;;;4991816;28;20420;-77
2021/12/05 07:03:07;;;;;;;6.72;1.83;;;;;;;;;;4999888;28;20216;-74
2021/12/05 07:05:43;;;;;;;7.72;1.83;;;;;;;;;;5011153;28;20180;-76
2021/12/05 07:08:10;;;;;;;5.20;1.27;;;;;;;;;;4991516;28;20169;-79
2021/12/05 07:11:01;;;;;;;5.97;1.90;;;;;;;;;;5008315;28;20949;-77
2021/12/05 07:18:55;;;;;;;9.50;2.03;;;;;;;;;;4993777;28;20263;-76
2021/12/05 07:21:37;;;;;;;12.73;2.97;;;;;;;;;;5010349;28;20208;-76
2021/12/05 07:40:28;;;;;;;3.83;1.58;;;;;;;;;;4993532;28;20320;-73
2021/12/05 07:42:55;;;;;;;11.82;1.55;;;;;;;;;;4992402;28;20189;-76
2021/12/05 07:45:28;;;;;;;7.30;1.70;;;;;;;;;;4993119;28;20216;-76
2021/12/05 07:47:55;;;;;;;15.88;3.33;;;;;;;;;;4993195;28;20174;-76
2021/12/05 07:50:31;;;;;;;7.88;2.35;;;;;;;;;;4993561;28;20174;-76
2021/12/05 07:53:05;;;;;;;16.63;3.47;;;;;;;;;;4992623;28;20196;-76
2021/12/05 07:55:38;;;;;;;3.22;1.13;;;;;;;;;;4994744;28;20427;-76
2021/12/05 08:00:50;;;;;;;9.07;2.10;;;;;;;;;;4992452;28;20605;-76
2021/12/05 08:14:55;;;;;;;6.72;2.25;;;;;;;;;;4991030;28;20193;-76
2021/12/05 08:17:16;;;;;;;9.15;2.25;;;;;;;;;;4992321;28;20335;-76
2021/12/05 08:19:42;;;;;;;6.95;1.85;;;;;;;;;;4997350;28;20181;-75
2021/12/05 08:22:08;;;;;;;8.60;2.45;;;;;;;;;;4995568;28;20284;-76
2021/12/05 08:24:38;;;;;;;19.25;2.97;;;;;;;;;;4989102;28;20201;-76
2021/12/05 08:27:05;;;;;;;5.30;1.45;;;;;;;;;;4997036;28;20150;-76
2021/12/05 08:29:44;;;;;;;4.93;1.52;;;;;;;;;;4995886;28;20641;-73
2021/12/05 08:32:25;;;;;;;9.63;1.92;;;;;;;;;;4996965;28;20162;-73
2021/12/05 08:35:06;;;;;;;17.48;3.17;;;;;;;;;;4996049;28;20224;-73
2021/12/05 08:38:34;;;;;;;8.50;2.25;;;;;;;;;;4996737;28;20661;-73
2021/12/05 08:41:13;;;;;;;13.05;2.75;;;;;;;;;;4996498;28;20182;-73
2021/12/05 10:01:49;;;;;;;19.27;2.40;;;;;;;;;;4993524;28;20446;-73
2021/12/05 10:14:45;;;;;;;11.07;2.53;;;;;;;;;;5013567;28;20404;-74
2021/12/05 10:37:13;;;;;;;7.60;1.70;;;;;;;;;;4954923;28;20418;-77
2021/12/05 10:39:40;;;;;;;9.23;1.97;;;;;;;;;;4958077;28;20519;-77
2021/12/05 10:42:41;;;;;;;10.40;1.97;;;;;;;;;;4965857;28;20451;-77
2021/12/05 10:45:32;;;;;;;14.13;2.60;;;;;;;;;;4951628;28;20445;-76
2021/12/05 10:48:00;;;;;;;6.47;1.77;;;;;;;;;;4942822;29;20877;-77
2021/12/05 10:50:27;;;;;;;20.00;2.70;;;;;;;;;;4920540;29;20429;-78
2021/12/05 10:53:11;;;;;;;6.50;1.53;;;;;;;;;;4896222;29;20460;-77
2021/12/05 10:55:37;;;;;;;6.60;1.60;;;;;;;;;;4905186;29;20472;-77
2021/12/05 10:58:05;;;;;;;6.50;1.77;;;;;;;;;;4899457;29;20531;-77
2021/12/05 11:00:31;;;;;;;21.17;3.73;;;;;;;;;;4905863;29;20778;-72
2021/12/05 11:03:16;;;;;;;7.77;2.90;;;;;;;;;;4912698;29;20468;-72
2021/12/05 11:05:42;;;;;;;10.33;1.77;;;;;;;;;;4899570;29;20440;-72
2021/12/05 11:08:31;;;;;;;10.70;2.30;;;6.80;1.00;;;;;;4938550;28;20430;-72
2021/12/05 11:11:14;;;;;;;10.03;2.03;;;;;;;;;;4959485;28;20516;-73
2021/12/05 11:13:43;;;;;;;9.47;2.43;;;;;;;;;;4972342;28;20425;-73
2021/12/05 11:16:35;;;;;;;25.00;4.03;;;6.70;1.00;;;;;;4972158;28;20414;-73
2021/12/05 11:19:02;;;;;;;9.17;2.10;;;;;;;;;;4977155;28;20437;-73
2021/12/05 11:21:33;;;;;;;14.67;2.70;;;;;;;;;;4993598;28;20452;-72
2021/12/05 11:24:10;;;;;;;4.73;1.43;;;;;;;;;;4993849;28;20970;-72
2021/12/05 11:26:37;;;;;;;8.73;2.00;;;;;;;;;;4993915;28;20432;-73
2021/12/05 11:29:04;;;;;;;4.90;1.13;;;;;;;;;;4992449;28;20478;-73
2021/12/05 11:31:30;;;;;;;15.63;2.47;;;;;;;;;;4993687;28;20428;-73
2021/12/05 11:33:57;;;;;;;12.53;1.57;;;;;;;;;;4993611;28;20420;-73
2021/12/05 11:36:24;;;;;;;14.70;2.00;;;;;;;;;;4992687;28;20786;-73
2021/12/05 11:38:50;;;;;;;5.90;1.60;;;;;;;;;;4993235;28;20417;-73
2021/12/05 11:41:22;;;;;;;31.40;4.43;;;;;;;;;;4993513;28;20413;-73
2021/12/05 11:43:51;;;;;;;6.47;1.53;;;;;;;;;;4993506;28;20455;-73
2021/12/05 11:46:36;;;;;;;12.67;2.27;;;;;;;;;;4993168;28;20425;-77
2021/12/05 11:49:10;;;;;;;9.70;2.03;;;;;;;;;;4985947;28;20930;-79
2021/12/05 11:51:52;;;;;;;3.60;1.07;;;;;;;;;;4980944;28;20445;-78
2021/12/05 11:54:29;;;;;;;15.87;2.80;;;;;;;;;;4989118;28;20425;-78
2021/12/05 11:56:55;;;;;;;8.00;1.70;;;;;;;;;;5002450;28;20415;-77
2021/12/05 11:59:23;;;;;;;15.77;2.80;;;;;;;;;;4992932;28;20413;-78
2021/12/05 12:01:52;;;;;;;17.97;3.00;;;;;;;;;;4993293;28;20431;-80
2021/12/05 12:04:21;;;;;;;11.13;2.03;;;;;;;;;;5007079;28;20440;-79
2021/12/05 12:07:04;;;;;;;6.93;1.60;;;;;;;;;;4993470;28;20405;-79
2021/12/05 12:09:30;;;;;;;7.30;1.57;;;;;;;;;;4992902;28;20471;-77
2021/12/05 12:11:56;;;;;;;8.00;1.33;;;;;;;;;;4993761;28;20424;-77
2021/12/05 12:14:22;;;;;;;7.57;1.57;;;;;;;;;;4992850;28;20487;-77
2021/12/05 12:16:50;;;;;;;12.13;1.90;;;;;;;;;;4992786;28;20417;-72
2021/12/05 12:19:21;;;;;;;5.20;1.17;;;;;;;;;;4988949;28;20823;-72
2021/12/05 12:21:48;;;;;;;9.43;1.90;;;;;;;;;;4993263;28;20408;-72
2021/12/05 12:24:15;;;;;;;5.83;1.40;;;;;;;;;;4992901;28;20492;-72
2021/12/05 12:26:42;;;;;;;7.20;1.70;;;;;;;;;;4993078;28;20436;-72
2021/12/05 12:29:11;;;;;;;6.53;1.63;;;;;;;;;;4992876;28;20416;-72
2021/12/05 12:31:40;;;;;;;20.13;2.80;;;;;;;;;;4993212;28;20433;-77
2021/12/05 12:34:08;;;;;;;5.47;1.37;;;;;;;;;;4993504;28;20409;-77
2021/12/05 12:36:34;;;;;;;6.93;1.57;;;;;;;;;;4992668;28;20428;-77
2021/12/05 12:39:04;;;;;;;7.97;1.70;;;;;;;;;;4992445;28;20432;-77
2021/12/05 12:41:31;;;;;;;6.60;1.50;;;;;;;;;;4993000;28;20466;-77
2021/12/05 12:43:57;;;;;;;7.30;1.70;;;;;;;;;;4992863;28;20475;-77
2021/12/05 12:46:32;;;;;;;7.97;1.73;;;;;;;;;;4993151;28;20425;-77
2021/12/05 12:49:13;;;;;;;5.40;1.43;;;;;;;;;;4992069;28;20413;-77
2021/12/05 12:51:40;;;;;;;12.63;2.23;;;;;;;;;;4984277;28;20417;-77
2021/12/05 12:54:13;;;;;;;12.13;2.40;;;;;;;;;;4992020;28;20506;-77
2021/12/05 12:56:40;;;;;;;5.27;1.17;;;;;;;;;;4996147;28;20787;-76
2021/12/05 12:59:10;;;;;;;20.55;3.10;;;;;;;;;;4992084;28;20435;-75
2021/12/05 13:12:32;;;;;;;13.53;2.70;;;;;;;;;;4996545;28;20478;-76
2021/12/05 13:15:02;;;;;;;6.77;1.70;;;;;;;;;;4995831;28;20420;-77
2021/12/05 13:18:19;;;;;;;4.20;1.50;;;7.60;1.00;;;;;;4995442;28;20417;-73
2021/12/05 13:20:52;;;;;;;9.97;2.30;;;;;;;;;;4934805;29;20439;-72
2021/12/05 13:23:30;;;;;;;9.10;2.33;;;;;;;;;;4935820;29;20546;-73
2021/12/05 13:26:01;;;;;;;16.40;3.07;;;;;;;;;;4935814;29;20507;-73
2021/12/05 13:28:32;;;;;;;15.17;2.57;;;;;;;;;;4950217;29;20414;-73
2021/12/05 13:30:58;;;;;;;8.53;1.93;;;;;;;;;;4946680;29;20415;-72
2021/12/05 13:33:26;;;;;;;10.93;2.13;;;;;;;;;;4954954;29;20863;-77
2021/12/05 13:35:57;;;;;;;6.47;1.47;;;;;;;;;;4955062;29;20890;-77
2021/12/05 13:38:31;;;;;;;5.40;1.37;;;;;;;;;;4952703;29;20430;-77
2021/12/05 13:41:09;;;;;;;12.40;2.30;;;;;;;;;;4946434;29;20426;-78
2021/12/05 13:43:36;;;;;;;6.27;1.53;;;;;;;;;;4954764;29;20528;-78
2021/12/05 13:46:04;;;;;;;8.33;1.70;;;;;;;;;;4954736;29;20777;-76
2021/12/05 13:48:30;;;;;;;13.47;2.43;;;;;;;;;;4954343;29;20411;-72
2021/12/05 13:50:58;;;;;;;18.43;2.77;;;;;;;;;;4935892;29;20435;-72
2021/12/05 13:53:29;;;;;;;12.30;1.73;;;;;;;;;;4935320;29;20458;-72
2021/12/05 13:55:59;;;;;;;11.37;2.30;;;;;;;;;;4943044;28;20460;-73
2021/12/05 13:58:53;;;;;;;8.60;1.73;;;;;;;;;;4995591;28;20417;-74
2021/12/05 14:01:18;;;;;;;14.20;2.47;;;;;;;;;;4994912;28;20432;-74
2021/12/05 14:03:47;;;;;;;4.93;1.30;;;;;;;;;;4990124;28;20452;-77
2021/12/05 14:06:28;;;;;;;5.73;1.50;;;;;;;;;;4995456;28;20500;-77
2021/12/05 14:08:58;;;;;;;13.53;2.40;;;;;;;;;;4995144;28;20456;-78
2021/12/05 14:11:25;;;;;;;5.53;1.43;;;;;;;;;;4995393;28;20463;-78
2021/12/05 14:13:51;;;;;;;6.63;1.63;;;;;;;;;;4994428;28;20417;-78
2021/12/05 14:16:17;;;;;;;6.33;1.50;;;;;;;;;;4995093;28;20861;-78
2021/12/05 14:18:43;;;;;;;14.53;2.50;;;;;;;;;;4995346;28;20425;-78
2021/12/05 14:21:13;;;;;;;13.37;2.30;;;;;;;;;;4994807;28;20879;-77
2021/12/05 14:23:40;;;;;;;7.30;1.40;;;;;;;;;;4994961;28;20463;-77
2021/12/05 14:26:16;;;;;;;9.43;1.80;;;;;;;;;;4994501;28;20911;-77
2021/12/05 14:28:42;;;;;;;3.50;1.00;;;;;;;;;;4995005;28;20408;-77
2021/12/05 14:31:08;;;;;;;8.93;2.00;;;;;;;;;;4994601;28;20420;-77
2021/12/05 14:33:50;;;;;;;4.10;1.17;;;;;;;;;;4995096;28;20779;-72
2021/12/05 14:36:30;;;;;;;14.30;2.60;;;;;;;;;;4994739;28;20495;-72
2021/12/05 14:39:10;;;;;;;12.57;2.30;;;;;;;;;;4994655;28;20903;-72
2021/12/05 14:41:37;;;;;;;4.03;1.23;;;;;;;;;;4994376;28;20919;-73
2021/12/05 14:44:03;;;;;;;12.47;2.20;;;;;;;;;;4994310;28;20990;-73
2021/12/05 14:46:29;;;;;;;19.23;3.20;;;;;;;;;;4994074;28;20440;-73
2021/12/05 14:49:01;;;;;;;27.53;3.80;;;;;;;;;;4994649;28;20938;-78
2021/12/05 14:51:32;;;;;;;7.00;1.40;;;;;;;;;;4993991;28;20440;-77
2021/12/05 14:53:58;;;;;;;11.93;2.27;;;;;;;;;;4993774;28;20439;-78
2021/12/05 14:56:28;;;;;;;4.63;1.23;;;;;;;;;;5003079;28;20416;-77
2021/12/05 14:59:02;;;;;;;7.53;1.03;;;;;;;;;;4994231;28;20966;-77
2021/12/05 15:01:29;;;;;;;8.57;1.47;;;;;;;;;;4993930;28;20424;-78
2021/12/05 15:03:55;;;;;;;6.67;1.40;;;;;;;;;;4994578;28;20858;-78
2021/12/05 15:06:21;;;;;;;10.83;1.83;;;;;;;;;;4993777;28;20420;-76
2021/12/05 15:08:47;;;;;;;6.43;1.17;;;;;;;;;;4994265;28;20496;-75
2021/12/05 15:11:13;;;;;;;5.87;1.37;;;;;;;;;;4993978;28;20912;-77
2021/12/05 15:13:39;;;;;;;11.33;2.40;;;;;;;;;;4993784;28;20516;-77
2021/12/05 15:16:05;;;;;;;10.80;1.87;;;;;;;;;;4994021;28;20408;-77
2021/12/05 15:18:34;;;;;;;9.17;1.90;;;;;;;;;;4994183;28;20420;-72
2021/12/05 15:21:00;;;;;;;7.13;1.50;;;;;;;;;;4993374;28;20425;-72
2021/12/05 15:23:28;;;;;;;6.53;1.47;;;;;;;;;;4992219;28;20495;-72
2021/12/05 15:25:54;;;;;;;4.43;1.13;;;;;;;;;;4983235;28;20786;-72
2021/12/05 15:28:22;;;;;;;8.47;1.87;;;;;;;;;;4993727;28;20512;-72
2021/12/05 15:30:48;;;;;;;9.43;2.10;;;;;;;;;;4993452;28;20417;-72
2021/12/05 15:33:16;;;;;;;15.03;2.60;;;;;;;;;;4993654;28;20435;-77
2021/12/05 15:35:46;;;;;;;7.17;1.57;;;;;;;;;;4990244;28;20908;-77
2021/12/05 15:38:14;;;;;;;5.77;1.40;;;;;;;;;;4993580;28;20417;-78
2021/12/05 15:40:42;;;;;;;18.23;2.97;;;;;;;;;;4993426;28;20820;-78
2021/12/05 15:43:12;;;;;;;12.07;2.00;;;;;;;;;;4993468;28;20495;-77
2021/12/05 15:45:39;;;;;;;7.23;1.40;;;;;;;;;;4992684;28;21008;-76
2021/12/05 15:48:06;;;;;;;10.27;1.80;;;;;;;;;;4993545;28;20413;-77
2021/12/05 15:50:33;;;;;;;6.27;1.33;;;;;;;;;;4991873;28;20826;-76
2021/12/05 15:53:05;;;;;;;6.63;1.40;;;;;;;;;;4992563;28;20424;-77
2021/12/05 15:55:38;;;;;;;6.70;1.47;;;;;;;;;;5001631;28;20431;-77
2021/12/05 15:58:07;;;;;;;5.77;1.33;;;;;;;;;;4993164;28;20916;-76
2021/12/05 16:00:38;;;;;;;20.20;2.33;;;;;;;;;;4992602;28;20432;-75
2021/12/05 16:03:08;;;;;;;9.00;1.70;;;;;;;;;;4988264;28;20542;-76
2021/12/05 16:05:35;;;;;;;10.00;1.80;;;;;;;;;;4992836;28;20515;-76
2021/12/05 16:08:05;;;;;;;11.77;2.20;;;;;;;;;;4992806;28;20421;-75
2021/12/05 16:10:33;;;;;;;24.63;3.40;;;;;;;;;;4991512;28;20928;-78
2021/12/05 16:12:59;;;;;;;11.23;1.90;;;;;;;;;;4993340;28;20504;-75
2021/12/05 16:15:27;;;;;;;15.20;2.80;;;;;;;;;;4992710;28;20425;-75
2021/12/05 16:17:55;;;;;;;5.27;1.30;;;;;;;;;;4993582;28;20420;-77
2021/12/05 16:20:43;;;;;;;13.80;2.70;;;;;;;;;;4992866;28;20431;-75
2021/12/05 16:23:23;;;;;;;23.00;3.40;;;;;;;;;;4992224;28;20460;-77
2021/12/05 16:26:04;;;;;;;5.43;1.23;;;;;;;;;;4987865;28;20416;-76
2021/12/05 16:28:33;;;;;;;13.03;1.37;;;;;;;;;;4992900;28;20899;-76
2021/12/05 16:31:25;;;;;;;10.37;1.70;;;;;;;;;;4992523;28;20504;-76
2021/12/05 16:33:53;;;;;;;6.13;1.37;;;;;;;;;;4978504;28;20441;-75
2021/12/05 16:36:19;;;;;;;5.50;1.50;;;;;;;;;;4993006;28;20468;-76
2021/12/05 16:38:47;;;;;;;11.40;1.90;;;;;;;;;;4995485;28;20564;-76
2021/12/05 16:41:13;;;;;;;5.67;1.30;;;;;;;;;;4996627;28;20429;-75
2021/12/05 16:43:46;;;;;;;17.40;2.70;;;;;;;;;;4996426;28;20483;-76
2021/12/05 16:46:14;;;;;;;14.20;2.63;;;;;;;;;;4996899;28;20439;-78
2021/12/05 16:48:41;;;;;;;6.50;1.50;;;;;;;;;;4996886;28;20420;-72
2021/12/05 16:51:15;;;;;;;10.43;2.10;;;;;;;;;;4996290;28;20429;-74
2021/12/05 16:53:46;;;;;;;5.73;1.73;;;;;;;;;;4996009;28;20432;-73
2021/12/05 16:56:14;;;;;;;8.13;1.77;;;;;;;;;;5006658;28;20433;-72
2021/12/05 16:58:42;;;;;;;9.20;1.93;;;;;;;;;;4996580;28;20478;-72
2021/12/05 17:01:14;;;;;;;8.87;2.00;;;;;;;;;;4995964;28;20434;-70
2021/12/05 17:03:43;;;;;;;5.73;1.37;;;;;;;;;;4996179;28;20469;-71
2021/12/05 17:06:11;;;;;;;23.10;3.53;;;;;;;;;;4991949;28;20424;-71
2021/12/05 17:08:45;;;;;;;8.13;1.70;;;;;;;;;;4996312;28;20412;-73
2021/12/05 17:11:12;;;;;;;12.00;2.23;;;;;;;;;;4996204;28;20452;-73
2021/12/05 17:13:44;;;;;;;17.53;2.67;;;;;;;;;;4995886;28;20515;-73
2021/12/05 17:16:23;;;;;;;7.63;1.77;;;;;;;;;;4995750;28;20413;-72
2021/12/05 17:18:58;;;;;;;3.97;1.17;;;;;;;;;;4996222;28;20955;-75
2021/12/05 17:21:24;;;;;;;14.73;2.03;;;;;;;;;;4995816;28;20435;-76
2021/12/05 17:23:50;;;;;;;10.90;1.90;;;;;;;;;;4995343;28;20449;-76
2021/12/05 17:26:16;;;;;;;6.13;1.25;;;;;;;;;;4992989;28;20989;-77
2021/12/05 17:28:45;;;;;;;12.47;2.07;;;;;;;;;;4995938;28;20180;-77
2021/12/05 17:31:13;;;;;;;15.60;2.70;;;;;;;;;;4989716;28;20426;-77
2021/12/05 17:33:43;;;;;;;5.40;1.47;;;;;;;;;;4993410;28;20417;-76
2021/12/05 17:36:14;;;;;;;9.37;1.90;;;;;;;;;;4996141;28;20416;-76
2021/12/05 17:38:40;;;;;;;4.07;1.00;;;;;;;;;;4986600;28;20434;-76
2021/12/05 17:41:06;;;;;;;11.63;2.03;;;;;;;;;;4995243;28;20420;-78
2021/12/05 17:43:32;;;;;;;7.70;1.80;;;;;;;;;;4995293;28;20468;-78
2021/12/05 17:45:58;;;;;;;10.88;2.33;;;;;;;;;;4995662;28;20632;-78
2021/12/05 17:48:25;;;;;;;7.82;1.63;;;;;;;;;;4995432;28;20260;-77
2021/12/05 17:50:53;;;;;;;13.63;2.47;;;;;;;;;;4995894;28;20607;-73
2021/12/05 17:53:29;;;;;;;11.93;2.17;;;;;;;;;;4994781;28;20181;-73
2021/12/05 17:56:02;;;;;;;9.00;1.90;;;;;;;;;;5003876;28;20425;-73
2021/12/05 18:04:25;;;;;;;8.88;1.95;;;;;;;;;;4992780;28;20613;-76
2021/12/05 18:06:51;;;;;;;10.07;2.43;;;;;;;;;;4992166;28;20649;-76
2021/12/05 18:09:17;;;;;;;4.93;1.77;;;;;;;;;;4992993;28;20515;-77
2021/12/05 18:11:43;;;;;;;7.73;1.73;;;;;;;;;;4992981;28;20527;-77
2021/12/05 18:14:10;;;;;;;11.33;2.20;;;;;;;;;;4992713;28;20431;-77
2021/12/05 18:16:36;;;;;;;7.13;1.97;;;;;;;;;;4992436;28;20436;-77
2021/12/05 18:19:07;;;;;;;8.88;2.33;;;;;;;;;;4992650;28;20469;-77
2021/12/05 18:21:37;;;;;;;12.18;2.85;;;;;;;;;;4993206;28;20219;-77
2021/12/05 18:24:05;;;;;;;25.33;4.50;;;;;;;;;;4986644;28;20264;-77
2021/12/05 18:26:31;;;;;;;6.43;1.93;;;;;;;;;;4992493;28;20461;-77
2021/12/05 18:28:57;;;;;;;10.07;2.42;;;;;;;;;;4992060;28;20465;-77
2021/12/05 18:31:26;;;;;;;12.93;2.93;;;;;;;;;;4992077;28;20252;-77
2021/12/05 18:34:13;;;;;;;6.63;1.90;;;;;;;;;;4992015;28;20433;-78
2021/12/05 18:36:40;;;;;;;19.55;2.20;;;;;;;;;;4953524;29;20474;-77
2021/12/05 18:39:11;;;;;;;7.90;2.25;;;;;;;;;;4949950;28;20195;-77
2021/12/05 18:41:38;;;;;;;8.70;2.77;;;;;;;;;;4952898;29;20210;-76
2021/12/05 18:44:10;;;;;;;7.85;2.15;;;;;;;;;;4962764;28;20458;-77
2021/12/05 18:46:36;;;;;;;23.93;3.57;;;;;;;;;;4952645;28;20191;-77
2021/12/05 18:49:04;;;;;;;8.57;2.30;;;;;;;;;;4959920;28;20457;-76
2021/12/05 18:51:30;;;;;;;7.60;2.30;;;;;;;;;;4957891;28;20829;-73
2021/12/05 18:53:57;;;;;;;4.30;1.90;;;;;;;;;;4946259;29;20494;-74
2021/12/05 18:56:25;;;;;;;12.45;3.33;;;;;;;;;;4953801;28;20478;-72
2021/12/05 18:58:53;;;;;;;12.33;2.77;;;;;;;;;;4951731;29;20266;-72
2021/12/05 19:07:09;;;;;;;8.30;2.30;;;;;;;;;;4943587;28;20432;-77
2021/12/05 19:11:42;;;;;;;8.85;1.88;;;;;;;;;;4947694;29;20521;-77
2021/12/05 19:12:29;;;;;;;10.40;2.27;;;;;;;;;;4948509;28;20192;-76
2021/12/05 19:14:58;;;;;;;10.65;3.00;;;;;;;;;;4990736;28;20433;-77
2021/12/05 19:17:44;;;;;;;4.78;1.90;;;;;;;;;;4991922;28;20724;-72
2021/12/05 19:20:20;;;;;;;10.77;2.47;;;;;;;;;;4989309;28;20209;-72
2021/12/05 19:22:47;;;;;;;25.60;4.22;;;;;;;;;;4991447;28;20493;-77
2021/12/05 19:25:16;;;;;;;14.33;3.37;;;;;;;;;;4991019;28;20174;-78
2021/12/05 19:27:43;;;;;;;8.57;2.05;;;;;;;;;;4990817;28;20413;-75
2021/12/05 19:30:11;;;;;;;17.73;1.90;;;;;;;;;;4991525;28;20239;-75
2021/12/05 19:32:38;;;;;;;10.05;3.00;;;;;;;;;;4991608;28;20413;-75
2021/12/05 19:35:05;;;;;;;6.15;2.28;;;;;;;;;;4991146;28;20186;-75
2021/12/05 19:37:32;;;;;;;11.13;2.70;;;;;;;;;;4991681;28;20178;-72
2021/12/05 19:39:59;;;;;;;12.20;2.90;;;;;;;;;;4991323;28;20959;-72
2021/12/05 19:42:25;;;;;;;15.83;3.37;;;;;;;;;;4991218;28;20653;-72
2021/12/05 19:44:53;;;;;;;20.70;2.65;;;;;;;;;;4993354;28;20826;-72
2021/12/05 19:47:19;;;;;;;5.50;2.10;;;;;;;;;;4993044;28;20177;-73
2021/12/05 19:49:46;;;;;;;15.30;1.97;;;;;;;;;;4993344;28;20448;-72
2021/12/05 19:52:13;;;;;;;6.97;1.90;;;;;;;;;;4993849;28;20504;-73
2021/12/05 19:54:40;;;;;;;18.42;3.40;;;;;;;;;;4993973;28;20464;-73
2021/12/05 19:57:06;;;;;;;7.00;2.43;;;;;;;;;;4999079;28;20176;-73
2021/12/05 19:59:33;;;;;;;20.40;3.55;;;;;;;;;;4993094;28;20408;-73
2021/12/05 20:01:59;;;;;;;7.72;2.92;;;;;;;;;;4988294;28;20192;-76
2021/12/05 20:04:25;;;;;;;19.25;3.85;;;;;;;;;;4993079;28;20189;-73
2021/12/05 20:06:53;;;;;;;13.40;3.22;;;;;;;;;;4991805;28;20177;-75
2021/12/05 20:09:20;;;;;;;11.75;3.08;;;;;;;;;;4993513;28;20166;-77
2021/12/05 20:11:47;;;;;;;9.02;2.80;;;;;;;;;;4992796;28;20271;-77
2021/12/05 20:14:13;;;;;;;15.85;3.75;;;;;;;;;;4993250;28;20216;-78
2021/12/05 20:16:40;;;;;;;3.67;1.52;;;;;;;;;;4992866;28;20260;-76
2021/12/05 20:19:08;;;;;;;6.07;2.20;;;;;;;;;;4993323;28;20203;-76
2021/12/05 20:21:36;;;;;;;10.95;2.90;;;;;;;;;;4993236;28;20551;-77
2021/12/05 20:24:02;;;;;;;9.35;3.25;;;;;;;;;;4993737;28;20173;-76